createdAt,value
2023-05-10T04:03:57.868Z,12.87
2023-05-10T04:08:09.718Z,12.86
2023-05-10T04:12:21.278Z,12.78
2023-05-10T04:16:32.812Z,12.73
2023-05-10T04:20:44.373Z,12.74
2023-05-10T04:24:55.905Z,12.72
2023-05-10T04:29:07.713Z,12.75
2023-05-10T04:33:19.210Z,12.83
2023-05-10T04:37:30.735Z,12.75
2023-05-10T04:41:42.288Z,12.78
2023-05-10T04:45:57.017Z,12.93
2023-05-10T04:50:09.100Z,13.04
2023-05-10T04:54:20.767Z,13.08
2023-05-10T04:58:32.283Z,12.99
2023-05-10T05:02:46.222Z,13.09
2023-05-10T05:06:58.037Z,13.13
2023-05-10T05:11:09.588Z,13.10
2023-05-10T05:15:21.089Z,13.10
2023-05-10T05:19:32.597Z,13.17
2023-05-10T05:23:44.466Z,13.11
2023-05-10T05:27:56.041Z,13.06
2023-05-10T05:32:09.346Z,13.02
2023-05-10T05:36:21.140Z,12.98
2023-05-10T05:40:32.723Z,13.10
2023-05-10T05:44:44.279Z,13.44
2023-05-10T05:48:55.776Z,13.79
2023-05-10T05:53:07.328Z,13.54
2023-05-10T05:57:18.853Z,13.44
2023-05-10T06:01:30.369Z,13.23
2023-05-10T06:05:42.013Z,13.24
2023-05-10T06:09:53.515Z,13.12
2023-05-10T06:14:05.650Z,13.08
2023-05-10T06:18:17.328Z,13.01
2023-05-10T06:22:29.409Z,13.07
2023-05-10T06:26:40.943Z,13.21
2023-05-10T06:30:52.468Z,13.37
2023-05-10T06:35:04.286Z,13.40
2023-05-10T06:39:15.882Z,13.43
2023-05-10T06:43:29.448Z,13.41
2023-05-10T06:47:41.533Z,13.48
2023-05-10T06:51:53.074Z,13.43
2023-05-10T06:56:04.723Z,13.39
2023-05-10T07:00:17.134Z,13.44
2023-05-10T07:04:28.860Z,13.25
2023-05-10T07:08:40.524Z,13.35
2023-05-10T07:12:52.214Z,13.30
2023-05-10T07:17:04.737Z,13.32
2023-05-10T07:21:16.306Z,13.31
2023-05-10T07:25:27.903Z,13.38
2023-05-10T07:29:39.847Z,13.37
2023-05-10T07:33:51.414Z,13.44
2023-05-10T07:38:03.274Z,13.54
2023-05-10T07:42:14.976Z,13.52
2023-05-10T07:46:26.596Z,13.50
2023-05-10T07:50:38.169Z,13.42
2023-05-10T07:54:49.784Z,13.57
2023-05-10T07:59:01.953Z,13.70
2023-05-10T08:03:14.336Z,13.76
2023-05-10T08:07:26.230Z,13.75
2023-05-10T08:11:37.870Z,14.04
2023-05-10T08:15:49.647Z,14.36
2023-05-10T08:20:01.329Z,14.58
2023-05-10T08:24:12.856Z,14.71
2023-05-10T08:28:24.487Z,14.68
2023-05-10T08:32:36.125Z,14.49
2023-05-10T08:36:47.749Z,14.24
2023-05-10T08:41:00.330Z,13.99
2023-05-10T08:45:12.610Z,14.15
2023-05-10T08:49:26.157Z,14.17
2023-05-10T08:53:38.510Z,14.30
2023-05-10T08:57:50.268Z,14.36
2023-05-10T09:02:03.528Z,14.40
2023-05-10T09:06:15.397Z,14.68
2023-05-10T09:10:28.598Z,15.05
2023-05-10T09:14:41.035Z,15.03
2023-05-10T09:18:52.656Z,15.24
2023-05-10T09:23:04.233Z,15.66
2023-05-10T09:27:15.795Z,16.06
2023-05-10T09:31:52.357Z,15.85
2023-05-10T09:36:10.125Z,15.61
2023-05-10T09:40:26.560Z,15.46
2023-05-10T09:44:39.059Z,15.08
2023-05-10T09:48:50.593Z,15.16
2023-05-10T09:53:04.407Z,15.00
2023-05-10T09:57:23.888Z,14.98
2023-05-10T10:01:36.209Z,15.35
2023-05-10T10:05:49.657Z,15.45
2023-05-10T10:10:01.519Z,15.41
2023-05-10T10:14:13.660Z,15.29
2023-05-10T10:18:28.322Z,15.27
2023-05-10T10:22:40.756Z,15.40
2023-05-10T10:26:58.185Z,15.43
2023-05-10T10:31:30.463Z,15.68
2023-05-10T10:35:44.583Z,15.59
2023-05-10T10:39:57.313Z,15.63
2023-05-10T10:44:27.914Z,15.63
2023-05-10T10:48:40.361Z,15.21
2023-05-10T10:52:53.356Z,14.84
2023-05-10T10:57:14.143Z,14.88
2023-05-10T11:01:34.814Z,15.08
2023-05-10T11:05:48.491Z,15.21
2023-05-10T11:10:06.472Z,15.63
2023-05-10T11:14:22.613Z,15.57
2023-05-10T11:18:34.445Z,15.37
2023-05-10T11:22:56.484Z,15.35
2023-05-10T11:27:09.146Z,15.53
2023-05-10T11:31:22.455Z,15.24
2023-05-10T11:35:42.504Z,14.90
2023-05-10T11:39:56.582Z,14.91
2023-05-10T11:44:10.836Z,15.15
2023-05-10T11:48:25.268Z,15.46
2023-05-10T11:52:38.917Z,15.83
2023-05-10T11:56:51.738Z,16.10
2023-05-10T12:01:05.682Z,16.49
2023-05-10T12:05:18.458Z,16.46
2023-05-10T12:09:43.058Z,16.60
2023-05-10T12:13:57.600Z,16.64
2023-05-10T12:18:12.253Z,16.70
2023-05-10T12:22:24.364Z,16.89
2023-05-10T12:26:37.102Z,17.31
2023-05-10T12:30:49.343Z,17.38
2023-05-10T12:35:01.403Z,17.33
2023-05-10T12:39:13.288Z,17.24
2023-05-10T12:43:25.909Z,17.35
2023-05-10T12:47:39.243Z,17.39
2023-05-10T12:51:51.844Z,17.22
2023-05-10T12:56:03.552Z,16.98
2023-05-10T13:00:15.791Z,17.11
2023-05-10T13:04:28.189Z,16.97
2023-05-10T13:08:40.164Z,17.42
2023-05-10T13:12:52.362Z,18.01
2023-05-10T13:17:04.290Z,18.45
2023-05-10T13:21:16.235Z,18.68
2023-05-10T13:25:27.809Z,18.92
2023-05-10T13:29:39.445Z,18.46
2023-05-10T13:33:51.192Z,18.61
2023-05-10T13:38:03.001Z,18.34
2023-05-10T13:42:14.626Z,18.02
2023-05-10T13:46:26.534Z,17.74
2023-05-10T13:50:38.036Z,17.89
2023-05-10T13:54:49.639Z,18.15
2023-05-10T13:59:01.427Z,18.28
2023-05-10T14:03:13.072Z,18.08
2023-05-10T14:07:24.686Z,18.15
2023-05-10T14:11:36.241Z,17.80
2023-05-10T14:15:47.790Z,17.61
2023-05-10T14:19:59.480Z,18.24
2023-05-10T14:24:11.107Z,18.59
2023-05-10T14:28:23.617Z,18.97
2023-05-10T14:32:37.472Z,19.29
2023-05-10T14:36:49.020Z,18.72
2023-05-10T14:41:00.531Z,18.23
2023-05-10T14:45:12.991Z,17.99
2023-05-10T14:49:26.560Z,17.67
2023-05-10T14:53:38.045Z,17.68
2023-05-10T14:57:51.213Z,17.97
2023-05-10T15:02:02.736Z,18.18
2023-05-10T15:06:16.756Z,18.49
2023-05-10T15:10:28.263Z,18.42
2023-05-10T15:14:40.848Z,18.17
2023-05-10T15:18:52.405Z,17.84
2023-05-10T15:23:04.130Z,17.25
2023-05-10T15:27:15.676Z,16.94
2023-05-10T15:31:28.123Z,16.78
2023-05-10T15:35:40.505Z,16.65
2023-05-10T15:39:52.027Z,16.61
2023-05-10T15:44:03.674Z,16.42
2023-05-10T15:48:15.218Z,16.15
2023-05-10T15:52:27.231Z,15.74
2023-05-10T15:56:39.350Z,15.45
2023-05-10T16:00:50.942Z,14.84
2023-05-10T16:05:02.562Z,14.74
2023-05-10T16:09:14.319Z,14.49
2023-05-10T16:13:26.229Z,14.20
2023-05-10T16:17:37.938Z,13.90
2023-05-10T16:21:49.931Z,13.68
2023-05-10T16:26:01.449Z,13.64
2023-05-10T16:30:13.077Z,13.82
2023-05-10T16:34:25.373Z,14.17
2023-05-10T16:38:37.631Z,14.62
2023-05-10T16:42:49.227Z,15.19
2023-05-10T16:47:00.774Z,15.55
2023-05-10T16:51:12.407Z,15.83
2023-05-10T16:55:26.248Z,15.85
2023-05-10T16:59:38.203Z,15.75
2023-05-10T17:03:49.885Z,15.65
2023-05-10T17:08:01.626Z,15.61
2023-05-10T17:12:13.161Z,15.48
2023-05-10T17:16:24.752Z,15.57
2023-05-10T17:20:36.262Z,15.53
2023-05-10T17:24:47.758Z,15.46
2023-05-10T17:28:59.255Z,15.14
2023-05-10T17:33:10.875Z,14.84
2023-05-10T17:37:22.849Z,14.69
2023-05-10T17:41:34.377Z,14.55
2023-05-10T17:45:47.925Z,14.34
2023-05-10T17:49:59.518Z,14.21
2023-05-10T17:54:11.011Z,14.13
2023-05-10T17:58:22.601Z,14.08
2023-05-10T18:02:36.655Z,13.82
2023-05-10T18:06:49.257Z,13.75
2023-05-10T18:11:01.026Z,13.61
2023-05-10T18:15:12.611Z,13.52
2023-05-10T18:19:27.066Z,13.47
2023-05-10T18:23:38.686Z,13.39
2023-05-10T18:27:50.502Z,13.34
2023-05-10T18:32:01.994Z,13.21
2023-05-10T18:36:14.160Z,13.19
2023-05-10T18:40:26.903Z,13.29
2023-05-10T18:44:38.430Z,13.23
2023-05-10T18:48:49.936Z,13.12
2023-05-10T18:53:01.479Z,13.00
2023-05-10T18:57:13.732Z,12.79
2023-05-10T19:01:25.470Z,12.69
2023-05-10T19:05:37.052Z,12.57
2023-05-10T19:09:48.554Z,12.48
2023-05-10T19:14:01.337Z,12.36
2023-05-10T19:18:12.874Z,12.34
2023-05-10T19:22:35.403Z,12.21
2023-05-10T19:26:56.229Z,12.12
2023-05-10T19:31:08.029Z,12.09
2023-05-10T19:35:19.645Z,11.99
2023-05-10T19:39:32.502Z,11.90
2023-05-10T19:43:43.990Z,11.87
2023-05-10T19:47:55.551Z,11.81
2023-05-10T19:52:11.873Z,11.62
2023-05-10T19:56:23.555Z,11.49
2023-05-10T20:00:35.504Z,11.37
2023-05-10T20:04:47.221Z,11.26
2023-05-10T20:08:58.724Z,11.15
2023-05-10T20:13:10.225Z,11.14
2023-05-10T20:17:21.855Z,10.95
2023-05-10T20:21:33.724Z,10.94
2023-05-10T20:25:45.310Z,10.86
2023-05-10T20:29:56.824Z,10.78
2023-05-10T20:34:08.354Z,10.74
2023-05-10T20:38:19.886Z,10.68
2023-05-10T20:42:31.472Z,10.66
2023-05-10T20:46:43.297Z,10.58
2023-05-10T20:50:54.870Z,10.49
2023-05-10T20:55:06.943Z,10.39
2023-05-10T20:59:19.075Z,10.31
2023-05-10T21:03:30.597Z,10.23
2023-05-10T21:07:42.102Z,10.14
2023-05-10T21:11:53.621Z,10.21
2023-05-10T21:16:05.338Z,10.16
2023-05-10T21:20:17.141Z,10.04
2023-05-10T21:24:29.037Z,10.05
2023-05-10T21:28:42.356Z,10.01
